MSC Jordan — HPMK — position and weather

sailwx.info

Track history (hours):
 
Tides and Currents Weather Stations Pressure Air Temp Water Temp Dewpoint Dewpoint Depression Visibility Wind Speed Wind Dir Waves Ship Positions

MSC Jordan

Last reported at 2016-Apr-27 08:26 UTC. Time now 2016-Apr-30 15:04 UTC.
Position N 29°54' W 012°16'.

Length 237 m; draft 9.9 m.

Type: Ship. MMSI: 355194000.

Date/timePositionNaut miles runAvg speedWind from/ knotsBaromVisibWave heightAir tempDewpointWater temp
2016-Apr-27 08:26N 29°54' W 012°16'8016.0
2016-Apr-27 03:26N 29°34' W 013°44'1415.9
2016-Apr-27 02:33N 29°24' W 013°56'1815.9
2016-Apr-27 01:26N 29°11' W 014°10'1415.5
2016-Apr-27 00:32N 29°01' W 014°22'2315.7
2016-Apr-26 23:05N 28°45' W 014°40'815.6
2016-Apr-26 22:33N 28°39' W 014°46'1615.7
2016-Apr-26 21:33N 28°28' W 014°59'1615.6
2016-Apr-26 20:33N 28°17' W 015°11'9 9.1
2016-Apr-26 19:34N 28°11' W 015°19'6 5.9
2016-Apr-26 18:32N 28°08' W 015°25'0 0.0
2016-Apr-26 17:32N 28°08' W 015°25'0 0.0
2016-Apr-26 16:11N 28°08' W 015°25'0 0.0
2016-Apr-26 15:26N 28°08' W 015°25'0 0.0
2016-Apr-26 14:26N 28°08' W 015°25'0 0.0
2016-Apr-26 13:26N 28°08' W 015°25'0 0.0
2016-Apr-26 12:29N 28°08' W 015°25'0 0.0
2016-Apr-26 11:29N 28°08' W 015°25'0 0.0
2016-Apr-26 10:29N 28°08' W 015°25'0 0.0
2016-Apr-26 09:29N 28°08' W 015°25'2 2.1
2016-Apr-26 08:33N 28°07' W 015°23'8 7.9
2016-Apr-26 07:34N 28°02' W 015°16'8 7.8
2016-Apr-26 06:33N 27°54' W 015°15'8 8.0
2016-Apr-26 05:33N 27°46' W 015°15'8 8.2
2016-Apr-26 04:33N 27°38' W 015°17'  
2016-Apr-22 17:17N 15°47' W 017°52'6 8.5
2016-Apr-22 16:32N 15°41' W 017°51'83 9.9
2016-Apr-22 08:11N 14°18' W 017°47'1219.5
2016-Apr-22 07:33N 14°06' W 017°45'1311.1
2016-Apr-22 06:21N 13°52' W 017°43'17 7.9
2016-Apr-22 04:13N 13°36' W 017°40'5 8.3
2016-Apr-22 03:33N 13°31' W 017°39'11 8.3
2016-Apr-22 02:13N 13°20' W 017°37'14 8.3
2016-Apr-22 00:33N 13°06' W 017°35'  
Track history (hours):
 
Tides and Currents Weather Stations Pressure Air Temp Water Temp Dewpoint Dewpoint Depression Visibility Wind Speed Wind Dir Waves Ship Positions

MSC Jordan

Last reported at 2016-Apr-27 08:26 UTC. Time now 2016-Apr-30 15:04 UTC.
Position N 29°54' W 012°16'.

Length 237 m; draft 9.9 m.

Type: Ship. MMSI: 355194000.

Date/timePositionNaut miles runAvg speedWind from/ knotsBaromVisibWave heightAir tempDewpointWater temp
2016-Apr-27 08:26N 29°54' W 012°16'8016.0
2016-Apr-27 03:26N 29°34' W 013°44'1415.9
2016-Apr-27 02:33N 29°24' W 013°56'1815.9
2016-Apr-27 01:26N 29°11' W 014°10'1415.5
2016-Apr-27 00:32N 29°01' W 014°22'2315.7
2016-Apr-26 23:05N 28°45' W 014°40'815.6
2016-Apr-26 22:33N 28°39' W 014°46'1615.7
2016-Apr-26 21:33N 28°28' W 014°59'1615.6
2016-Apr-26 20:33N 28°17' W 015°11'9 9.1
2016-Apr-26 19:34N 28°11' W 015°19'6 5.9
2016-Apr-26 18:32N 28°08' W 015°25'0 0.0
2016-Apr-26 17:32N 28°08' W 015°25'0 0.0
2016-Apr-26 16:11N 28°08' W 015°25'0 0.0
2016-Apr-26 15:26N 28°08' W 015°25'0 0.0
2016-Apr-26 14:26N 28°08' W 015°25'0 0.0
2016-Apr-26 13:26N 28°08' W 015°25'0 0.0
2016-Apr-26 12:29N 28°08' W 015°25'0 0.0
2016-Apr-26 11:29N 28°08' W 015°25'0 0.0
2016-Apr-26 10:29N 28°08' W 015°25'0 0.0
2016-Apr-26 09:29N 28°08' W 015°25'2 2.1
2016-Apr-26 08:33N 28°07' W 015°23'8 7.9
2016-Apr-26 07:34N 28°02' W 015°16'8 7.8
2016-Apr-26 06:33N 27°54' W 015°15'8 8.0
2016-Apr-26 05:33N 27°46' W 015°15'8 8.2
2016-Apr-26 04:33N 27°38' W 015°17'  
2016-Apr-22 17:17N 15°47' W 017°52'6 8.5
2016-Apr-22 16:32N 15°41' W 017°51'83 9.9
2016-Apr-22 08:11N 14°18' W 017°47'1219.5
2016-Apr-22 07:33N 14°06' W 017°45'1311.1
2016-Apr-22 06:21N 13°52' W 017°43'17 7.9
2016-Apr-22 04:13N 13°36' W 017°40'5 8.3
2016-Apr-22 03:33N 13°31' W 017°39'11 8.3
2016-Apr-22 02:13N 13°20' W 017°37'14 8.3
2016-Apr-22 00:33N 13°06' W 017°35'  

Dump ship's entire track history